sensor_id;sensor_type;location;lat;lon;timestamp;P1;durP1;ratioP1;P2;durP2;ratioP2
20101;SDS011;10210;52.284;9.892;2023-05-07T00:01:01;25.00;;;16.73;;
20101;SDS011;10210;52.284;9.892;2023-05-07T00:03:27;24.97;;;17.53;;
20101;SDS011;10210;52.284;9.892;2023-05-07T00:05:53;25.93;;;17.07;;
20101;SDS011;10210;52.284;9.892;2023-05-07T00:08:19;26.20;;;17.77;;
20101;SDS011;10210;52.284;9.892;2023-05-07T00:10:45;29.23;;;18.00;;
20101;SDS011;10210;52.284;9.892;2023-05-07T00:13:11;28.07;;;18.87;;
20101;SDS011;10210;52.284;9.892;2023-05-07T00:15:37;27.97;;;18.40;;
20101;SDS011;10210;52.284;9.892;2023-05-07T00:18:03;28.47;;;18.93;;
20101;SDS011;10210;52.284;9.892;2023-05-07T00:20:28;29.53;;;18.90;;
20101;SDS011;10210;52.284;9.892;2023-05-07T00:22:54;28.30;;;19.47;;
20101;SDS011;10210;52.284;9.892;2023-05-07T00:25:20;29.70;;;20.07;;
20101;SDS011;10210;52.284;9.892;2023-05-07T00:27:45;31.80;;;20.30;;
20101;SDS011;10210;52.284;9.892;2023-05-07T00:30:11;29.40;;;19.23;;
20101;SDS011;10210;52.284;9.892;2023-05-07T00:32:37;30.00;;;19.17;;
20101;SDS011;10210;52.284;9.892;2023-05-07T00:35:04;29.50;;;18.90;;
20101;SDS011;10210;52.284;9.892;2023-05-07T00:37:30;31.27;;;20.60;;
20101;SDS011;10210;52.284;9.892;2023-05-07T00:39:56;31.30;;;19.93;;
20101;SDS011;10210;52.284;9.892;2023-05-07T00:42:22;32.20;;;20.10;;
20101;SDS011;10210;52.284;9.892;2023-05-07T00:44:49;29.13;;;17.90;;
20101;SDS011;10210;52.284;9.892;2023-05-07T00:47:15;28.00;;;17.93;;
20101;SDS011;10210;52.284;9.892;2023-05-07T00:49:42;29.70;;;18.83;;
20101;SDS011;10210;52.284;9.892;2023-05-07T00:52:11;29.60;;;19.07;;
20101;SDS011;10210;52.284;9.892;2023-05-07T00:54:40;27.03;;;18.67;;
20101;SDS011;10210;52.284;9.892;2023-05-07T00:57:07;29.87;;;19.17;;
20101;SDS011;10210;52.284;9.892;2023-05-07T00:59:36;30.27;;;18.07;;
20101;SDS011;10210;52.284;9.892;2023-05-07T01:02:02;32.13;;;19.47;;
20101;SDS011;10210;52.284;9.892;2023-05-07T01:04:27;32.23;;;18.87;;
20101;SDS011;10210;52.284;9.892;2023-05-07T01:06:56;29.77;;;18.50;;
20101;SDS011;10210;52.284;9.892;2023-05-07T01:09:25;31.33;;;19.40;;
20101;SDS011;10210;52.284;9.892;2023-05-07T01:11:51;31.03;;;19.63;;
20101;SDS011;10210;52.284;9.892;2023-05-07T01:14:18;29.67;;;19.07;;
20101;SDS011;10210;52.284;9.892;2023-05-07T01:16:45;27.97;;;18.27;;
20101;SDS011;10210;52.284;9.892;2023-05-07T01:19:16;26.63;;;17.13;;
20101;SDS011;10210;52.284;9.892;2023-05-07T01:21:44;29.00;;;18.03;;
20101;SDS011;10210;52.284;9.892;2023-05-07T01:24:13;26.53;;;16.90;;
20101;SDS011;10210;52.284;9.892;2023-05-07T01:26:40;25.67;;;16.00;;
20101;SDS011;10210;52.284;9.892;2023-05-07T01:29:10;25.33;;;15.80;;
20101;SDS011;10210;52.284;9.892;2023-05-07T01:31:36;27.87;;;16.77;;
20101;SDS011;10210;52.284;9.892;2023-05-07T01:34:04;27.17;;;15.80;;
20101;SDS011;10210;52.284;9.892;2023-05-07T01:36:33;25.07;;;15.03;;
20101;SDS011;10210;52.284;9.892;2023-05-07T01:39:02;25.47;;;14.57;;
20101;SDS011;10210;52.284;9.892;2023-05-07T01:41:28;24.23;;;15.07;;
20101;SDS011;10210;52.284;9.892;2023-05-07T01:43:53;24.17;;;14.53;;
20101;SDS011;10210;52.284;9.892;2023-05-07T01:46:22;23.97;;;13.33;;
20101;SDS011;10210;52.284;9.892;2023-05-07T01:48:48;22.40;;;12.97;;
20101;SDS011;10210;52.284;9.892;2023-05-07T01:51:14;20.80;;;11.73;;
20101;SDS011;10210;52.284;9.892;2023-05-07T01:53:40;21.80;;;12.20;;
20101;SDS011;10210;52.284;9.892;2023-05-07T01:56:06;20.23;;;11.23;;
20101;SDS011;10210;52.284;9.892;2023-05-07T01:58:32;20.50;;;11.60;;
20101;SDS011;10210;52.284;9.892;2023-05-07T02:00:58;19.03;;;11.00;;
20101;SDS011;10210;52.284;9.892;2023-05-07T02:03:24;20.07;;;11.13;;
20101;SDS011;10210;52.284;9.892;2023-05-07T02:05:50;21.47;;;11.07;;
20101;SDS011;10210;52.284;9.892;2023-05-07T02:08:16;19.53;;;10.67;;
20101;SDS011;10210;52.284;9.892;2023-05-07T02:10:41;20.10;;;9.83;;
20101;SDS011;10210;52.284;9.892;2023-05-07T02:13:07;17.10;;;9.37;;
20101;SDS011;10210;52.284;9.892;2023-05-07T02:15:33;19.20;;;10.93;;
20101;SDS011;10210;52.284;9.892;2023-05-07T02:17:59;18.07;;;10.10;;
20101;SDS011;10210;52.284;9.892;2023-05-07T02:20:39;17.67;;;9.97;;
20101;SDS011;10210;52.284;9.892;2023-05-07T02:23:05;18.70;;;10.17;;
20101;SDS011;10210;52.284;9.892;2023-05-07T02:25:31;18.73;;;10.13;;
20101;SDS011;10210;52.284;9.892;2023-05-07T02:27:56;18.47;;;10.63;;
20101;SDS011;10210;52.284;9.892;2023-05-07T02:30:22;18.67;;;10.33;;
20101;SDS011;10210;52.284;9.892;2023-05-07T02:32:48;19.80;;;11.50;;
20101;SDS011;10210;52.284;9.892;2023-05-07T02:35:14;19.57;;;11.80;;
20101;SDS011;10210;52.284;9.892;2023-05-07T02:37:40;20.03;;;11.73;;
20101;SDS011;10210;52.284;9.892;2023-05-07T02:40:06;20.80;;;12.30;;
20101;SDS011;10210;52.284;9.892;2023-05-07T02:42:32;20.40;;;11.33;;
20101;SDS011;10210;52.284;9.892;2023-05-07T02:44:58;19.87;;;11.33;;
20101;SDS011;10210;52.284;9.892;2023-05-07T02:47:24;19.97;;;12.40;;
20101;SDS011;10210;52.284;9.892;2023-05-07T02:49:53;20.40;;;11.43;;
20101;SDS011;10210;52.284;9.892;2023-05-07T02:52:20;21.47;;;11.83;;
20101;SDS011;10210;52.284;9.892;2023-05-07T02:54:46;22.33;;;12.73;;
20101;SDS011;10210;52.284;9.892;2023-05-07T02:57:11;21.93;;;12.20;;
20101;SDS011;10210;52.284;9.892;2023-05-07T02:59:37;22.33;;;12.93;;
20101;SDS011;10210;52.284;9.892;2023-05-07T03:02:03;19.87;;;11.53;;
20101;SDS011;10210;52.284;9.892;2023-05-07T03:04:28;20.87;;;12.20;;
20101;SDS011;10210;52.284;9.892;2023-05-07T03:06:54;19.90;;;11.30;;
20101;SDS011;10210;52.284;9.892;2023-05-07T03:09:20;18.63;;;10.83;;
20101;SDS011;10210;52.284;9.892;2023-05-07T03:11:45;20.00;;;11.73;;
20101;SDS011;10210;52.284;9.892;2023-05-07T03:14:11;19.00;;;10.67;;
20101;SDS011;10210;52.284;9.892;2023-05-07T03:16:37;18.90;;;10.63;;
20101;SDS011;10210;52.284;9.892;2023-05-07T03:19:03;19.57;;;11.60;;
20101;SDS011;10210;52.284;9.892;2023-05-07T03:21:29;19.83;;;11.47;;
20101;SDS011;10210;52.284;9.892;2023-05-07T03:23:55;19.40;;;11.03;;
20101;SDS011;10210;52.284;9.892;2023-05-07T03:26:21;19.50;;;10.97;;
20101;SDS011;10210;52.284;9.892;2023-05-07T03:28:47;19.73;;;11.00;;
20101;SDS011;10210;52.284;9.892;2023-05-07T03:31:12;19.90;;;11.37;;
20101;SDS011;10210;52.284;9.892;2023-05-07T03:33:39;19.80;;;11.40;;
20101;SDS011;10210;52.284;9.892;2023-05-07T03:36:19;18.30;;;10.17;;
20101;SDS011;10210;52.284;9.892;2023-05-07T03:38:46;18.53;;;10.53;;
20101;SDS011;10210;52.284;9.892;2023-05-07T03:41:13;19.80;;;10.80;;
20101;SDS011;10210;52.284;9.892;2023-05-07T03:43:39;17.40;;;9.37;;
20101;SDS011;10210;52.284;9.892;2023-05-07T03:46:04;17.20;;;9.63;;
20101;SDS011;10210;52.284;9.892;2023-05-07T03:48:30;16.60;;;9.10;;
20101;SDS011;10210;52.284;9.892;2023-05-07T03:50:56;17.87;;;9.63;;
20101;SDS011;10210;52.284;9.892;2023-05-07T03:53:23;17.13;;;8.90;;
20101;SDS011;10210;52.284;9.892;2023-05-07T03:55:49;17.03;;;9.67;;
20101;SDS011;10210;52.284;9.892;2023-05-07T03:58:14;20.37;;;10.50;;
20101;SDS011;10210;52.284;9.892;2023-05-07T04:00:40;17.83;;;9.70;;
20101;SDS011;10210;52.284;9.892;2023-05-07T04:03:06;18.40;;;9.90;;
20101;SDS011;10210;52.284;9.892;2023-05-07T04:05:32;18.70;;;10.60;;
20101;SDS011;10210;52.284;9.892;2023-05-07T04:07:58;19.17;;;10.93;;
20101;SDS011;10210;52.284;9.892;2023-05-07T04:10:24;18.57;;;10.10;;
20101;SDS011;10210;52.284;9.892;2023-05-07T04:12:50;18.50;;;10.30;;
20101;SDS011;10210;52.284;9.892;2023-05-07T04:15:16;20.30;;;10.90;;
20101;SDS011;10210;52.284;9.892;2023-05-07T04:17:42;17.83;;;10.43;;
20101;SDS011;10210;52.284;9.892;2023-05-07T04:20:13;18.37;;;10.23;;
20101;SDS011;10210;52.284;9.892;2023-05-07T04:22:41;19.67;;;10.93;;
20101;SDS011;10210;52.284;9.892;2023-05-07T04:25:07;21.20;;;11.40;;
20101;SDS011;10210;52.284;9.892;2023-05-07T04:27:34;18.93;;;11.17;;
20101;SDS011;10210;52.284;9.892;2023-05-07T04:30:01;20.20;;;11.40;;
20101;SDS011;10210;52.284;9.892;2023-05-07T04:32:27;19.03;;;10.83;;
20101;SDS011;10210;52.284;9.892;2023-05-07T04:34:54;20.73;;;11.57;;
20101;SDS011;10210;52.284;9.892;2023-05-07T04:37:21;19.40;;;11.60;;
20101;SDS011;10210;52.284;9.892;2023-05-07T04:39:47;19.87;;;11.60;;
20101;SDS011;10210;52.284;9.892;2023-05-07T04:42:16;21.10;;;11.47;;
20101;SDS011;10210;52.284;9.892;2023-05-07T04:44:43;21.17;;;12.37;;
20101;SDS011;10210;52.284;9.892;2023-05-07T04:47:12;20.97;;;12.10;;
20101;SDS011;10210;52.284;9.892;2023-05-07T04:49:38;19.83;;;11.27;;
20101;SDS011;10210;52.284;9.892;2023-05-07T04:52:04;24.00;;;13.87;;
20101;SDS011;10210;52.284;9.892;2023-05-07T04:54:30;22.37;;;13.37;;
20101;SDS011;10210;52.284;9.892;2023-05-07T04:56:55;23.37;;;14.00;;
20101;SDS011;10210;52.284;9.892;2023-05-07T04:59:21;21.67;;;12.47;;
20101;SDS011;10210;52.284;9.892;2023-05-07T05:01:47;20.80;;;12.60;;
20101;SDS011;10210;52.284;9.892;2023-05-07T05:04:12;18.73;;;11.47;;
20101;SDS011;10210;52.284;9.892;2023-05-07T05:06:38;19.73;;;11.03;;
20101;SDS011;10210;52.284;9.892;2023-05-07T05:09:04;18.83;;;10.77;;
20101;SDS011;10210;52.284;9.892;2023-05-07T05:11:30;18.53;;;11.03;;
20101;SDS011;10210;52.284;9.892;2023-05-07T05:13:56;19.90;;;11.17;;
20101;SDS011;10210;52.284;9.892;2023-05-07T05:16:24;19.23;;;10.97;;
20101;SDS011;10210;52.284;9.892;2023-05-07T05:18:50;17.27;;;10.17;;
20101;SDS011;10210;52.284;9.892;2023-05-07T05:21:17;17.73;;;10.27;;
20101;SDS011;10210;52.284;9.892;2023-05-07T05:23:42;19.50;;;10.10;;
20101;SDS011;10210;52.284;9.892;2023-05-07T05:26:08;18.57;;;10.20;;
20101;SDS011;10210;52.284;9.892;2023-05-07T05:28:34;17.70;;;9.77;;
20101;SDS011;10210;52.284;9.892;2023-05-07T05:30:59;18.03;;;9.73;;
20101;SDS011;10210;52.284;9.892;2023-05-07T05:33:25;17.13;;;9.70;;
20101;SDS011;10210;52.284;9.892;2023-05-07T05:35:51;17.33;;;9.23;;
20101;SDS011;10210;52.284;9.892;2023-05-07T05:38:18;17.20;;;9.10;;
20101;SDS011;10210;52.284;9.892;2023-05-07T05:40:45;16.50;;;9.30;;
20101;SDS011;10210;52.284;9.892;2023-05-07T05:43:11;16.27;;;9.20;;
20101;SDS011;10210;52.284;9.892;2023-05-07T05:45:38;16.80;;;9.37;;
20101;SDS011;10210;52.284;9.892;2023-05-07T05:48:03;17.27;;;10.20;;
20101;SDS011;10210;52.284;9.892;2023-05-07T05:50:29;17.37;;;9.57;;
20101;SDS011;10210;52.284;9.892;2023-05-07T05:52:55;18.03;;;8.70;;
20101;SDS011;10210;52.284;9.892;2023-05-07T05:55:21;17.17;;;9.60;;
20101;SDS011;10210;52.284;9.892;2023-05-07T05:57:47;16.33;;;9.17;;
20101;SDS011;10210;52.284;9.892;2023-05-07T06:00:13;17.33;;;9.57;;
20101;SDS011;10210;52.284;9.892;2023-05-07T06:02:39;18.13;;;9.23;;
20101;SDS011;10210;52.284;9.892;2023-05-07T06:05:04;16.50;;;9.63;;
20101;SDS011;10210;52.284;9.892;2023-05-07T06:07:30;16.37;;;9.27;;
20101;SDS011;10210;52.284;9.892;2023-05-07T06:09:56;16.13;;;9.37;;
20101;SDS011;10210;52.284;9.892;2023-05-07T06:12:21;16.90;;;9.17;;
20101;SDS011;10210;52.284;9.892;2023-05-07T06:14:47;17.07;;;9.07;;
20101;SDS011;10210;52.284;9.892;2023-05-07T06:17:13;16.77;;;9.67;;
20101;SDS011;10210;52.284;9.892;2023-05-07T06:19:38;16.40;;;8.87;;
20101;SDS011;10210;52.284;9.892;2023-05-07T06:22:04;15.63;;;8.63;;
20101;SDS011;10210;52.284;9.892;2023-05-07T06:24:30;16.07;;;8.87;;
20101;SDS011;10210;52.284;9.892;2023-05-07T06:26:55;16.83;;;8.37;;
20101;SDS011;10210;52.284;9.892;2023-05-07T06:29:23;15.03;;;8.27;;
20101;SDS011;10210;52.284;9.892;2023-05-07T06:31:50;16.00;;;8.57;;
20101;SDS011;10210;52.284;9.892;2023-05-07T06:34:19;15.07;;;7.77;;
20101;SDS011;10210;52.284;9.892;2023-05-07T06:36:45;15.00;;;8.37;;
20101;SDS011;10210;52.284;9.892;2023-05-07T06:39:10;16.60;;;9.00;;
20101;SDS011;10210;52.284;9.892;2023-05-07T06:41:36;14.90;;;8.30;;
20101;SDS011;10210;52.284;9.892;2023-05-07T06:44:02;15.57;;;8.87;;
20101;SDS011;10210;52.284;9.892;2023-05-07T06:46:28;16.87;;;9.70;;
20101;SDS011;10210;52.284;9.892;2023-05-07T06:48:54;16.33;;;9.63;;
20101;SDS011;10210;52.284;9.892;2023-05-07T06:51:21;17.63;;;10.33;;
20101;SDS011;10210;52.284;9.892;2023-05-07T06:53:48;18.20;;;11.03;;
20101;SDS011;10210;52.284;9.892;2023-05-07T06:56:14;17.50;;;10.70;;
20101;SDS011;10210;52.284;9.892;2023-05-07T06:58:40;18.83;;;12.13;;
20101;SDS011;10210;52.284;9.892;2023-05-07T07:01:05;18.13;;;11.87;;
20101;SDS011;10210;52.284;9.892;2023-05-07T07:03:31;19.47;;;12.87;;
20101;SDS011;10210;52.284;9.892;2023-05-07T07:05:57;18.33;;;11.80;;
20101;SDS011;10210;52.284;9.892;2023-05-07T07:08:22;18.57;;;12.40;;
20101;SDS011;10210;52.284;9.892;2023-05-07T07:10:48;19.50;;;12.43;;
20101;SDS011;10210;52.284;9.892;2023-05-07T07:13:14;19.33;;;12.50;;
20101;SDS011;10210;52.284;9.892;2023-05-07T07:15:40;19.10;;;12.40;;
20101;SDS011;10210;52.284;9.892;2023-05-07T07:18:05;20.03;;;12.30;;
20101;SDS011;10210;52.284;9.892;2023-05-07T07:20:31;21.17;;;12.60;;
20101;SDS011;10210;52.284;9.892;2023-05-07T07:22:57;19.47;;;11.60;;
20101;SDS011;10210;52.284;9.892;2023-05-07T07:25:23;19.80;;;12.87;;
20101;SDS011;10210;52.284;9.892;2023-05-07T07:27:49;19.60;;;12.83;;
20101;SDS011;10210;52.284;9.892;2023-05-07T07:30:14;20.73;;;13.60;;
20101;SDS011;10210;52.284;9.892;2023-05-07T07:32:40;19.43;;;13.10;;
20101;SDS011;10210;52.284;9.892;2023-05-07T07:35:06;20.30;;;13.37;;
20101;SDS011;10210;52.284;9.892;2023-05-07T07:37:32;20.93;;;13.37;;
20101;SDS011;10210;52.284;9.892;2023-05-07T07:39:58;19.83;;;13.43;;
20101;SDS011;10210;52.284;9.892;2023-05-07T07:42:23;19.70;;;13.47;;
20101;SDS011;10210;52.284;9.892;2023-05-07T07:44:50;18.70;;;12.37;;
20101;SDS011;10210;52.284;9.892;2023-05-07T07:47:15;20.50;;;12.43;;
20101;SDS011;10210;52.284;9.892;2023-05-07T07:49:41;20.30;;;12.93;;
20101;SDS011;10210;52.284;9.892;2023-05-07T07:52:07;21.10;;;14.37;;
20101;SDS011;10210;52.284;9.892;2023-05-07T07:54:32;20.17;;;14.03;;
20101;SDS011;10210;52.284;9.892;2023-05-07T07:56:58;20.00;;;13.73;;
20101;SDS011;10210;52.284;9.892;2023-05-07T07:59:23;21.90;;;14.17;;
20101;SDS011;10210;52.284;9.892;2023-05-07T08:01:50;23.00;;;14.73;;
20101;SDS011;10210;52.284;9.892;2023-05-07T08:04:17;21.50;;;15.10;;
20101;SDS011;10210;52.284;9.892;2023-05-07T08:06:42;21.70;;;15.37;;
20101;SDS011;10210;52.284;9.892;2023-05-07T08:09:08;22.13;;;14.63;;
20101;SDS011;10210;52.284;9.892;2023-05-07T08:11:34;20.23;;;13.77;;
20101;SDS011;10210;52.284;9.892;2023-05-07T08:14:00;20.10;;;13.40;;
20101;SDS011;10210;52.284;9.892;2023-05-07T08:16:26;21.93;;;13.43;;
20101;SDS011;10210;52.284;9.892;2023-05-07T08:18:52;21.77;;;14.30;;
20101;SDS011;10210;52.284;9.892;2023-05-07T08:21:25;22.73;;;15.50;;
20101;SDS011;10210;52.284;9.892;2023-05-07T08:23:51;23.60;;;16.03;;
20101;SDS011;10210;52.284;9.892;2023-05-07T08:26:16;21.83;;;16.57;;
20101;SDS011;10210;52.284;9.892;2023-05-07T08:28:42;21.70;;;16.13;;
20101;SDS011;10210;52.284;9.892;2023-05-07T08:31:08;20.77;;;15.50;;
20101;SDS011;10210;52.284;9.892;2023-05-07T08:33:33;21.50;;;15.67;;
20101;SDS011;10210;52.284;9.892;2023-05-07T08:35:59;22.73;;;15.67;;
20101;SDS011;10210;52.284;9.892;2023-05-07T08:38:25;22.80;;;14.03;;
20101;SDS011;10210;52.284;9.892;2023-05-07T08:40:51;22.57;;;15.00;;
20101;SDS011;10210;52.284;9.892;2023-05-07T08:43:18;23.60;;;16.30;;
20101;SDS011;10210;52.284;9.892;2023-05-07T08:45:46;22.30;;;15.60;;
20101;SDS011;10210;52.284;9.892;2023-05-07T08:48:18;21.30;;;15.00;;
20101;SDS011;10210;52.284;9.892;2023-05-07T08:50:50;20.50;;;14.47;;
20101;SDS011;10210;52.284;9.892;2023-05-07T08:53:16;20.27;;;13.50;;
20101;SDS011;10210;52.284;9.892;2023-05-07T08:55:43;18.63;;;12.80;;
20101;SDS011;10210;52.284;9.892;2023-05-07T08:58:08;21.97;;;13.20;;
20101;SDS011;10210;52.284;9.892;2023-05-07T09:00:35;22.30;;;12.70;;
20101;SDS011;10210;52.284;9.892;2023-05-07T09:03:02;20.70;;;12.67;;
20101;SDS011;10210;52.284;9.892;2023-05-07T09:05:28;19.07;;;11.97;;
20101;SDS011;10210;52.284;9.892;2023-05-07T09:07:54;18.47;;;12.07;;
20101;SDS011;10210;52.284;9.892;2023-05-07T09:10:20;19.07;;;11.90;;
20101;SDS011;10210;52.284;9.892;2023-05-07T09:12:46;18.73;;;11.07;;
20101;SDS011;10210;52.284;9.892;2023-05-07T09:15:13;18.37;;;11.40;;
20101;SDS011;10210;52.284;9.892;2023-05-07T09:17:43;18.10;;;11.63;;
20101;SDS011;10210;52.284;9.892;2023-05-07T09:20:09;19.67;;;12.30;;
20101;SDS011;10210;52.284;9.892;2023-05-07T09:22:38;18.60;;;12.63;;
20101;SDS011;10210;52.284;9.892;2023-05-07T09:25:05;18.90;;;11.90;;
20101;SDS011;10210;52.284;9.892;2023-05-07T09:27:33;18.33;;;12.27;;
20101;SDS011;10210;52.284;9.892;2023-05-07T09:29:58;17.77;;;11.77;;
20101;SDS011;10210;52.284;9.892;2023-05-07T09:32:24;18.80;;;12.07;;
20101;SDS011;10210;52.284;9.892;2023-05-07T09:34:52;18.83;;;11.83;;
20101;SDS011;10210;52.284;9.892;2023-05-07T09:37:17;18.63;;;11.47;;
20101;SDS011;10210;52.284;9.892;2023-05-07T09:39:44;17.03;;;10.70;;
20101;SDS011;10210;52.284;9.892;2023-05-07T09:42:14;19.23;;;12.57;;
20101;SDS011;10210;52.284;9.892;2023-05-07T09:44:40;18.27;;;12.20;;
20101;SDS011;10210;52.284;9.892;2023-05-07T09:47:08;19.10;;;11.83;;
20101;SDS011;10210;52.284;9.892;2023-05-07T09:49:42;19.00;;;12.73;;
20101;SDS011;10210;52.284;9.892;2023-05-07T09:52:13;19.90;;;13.33;;
20101;SDS011;10210;52.284;9.892;2023-05-07T09:54:40;19.47;;;13.33;;
20101;SDS011;10210;52.284;9.892;2023-05-07T09:57:09;18.47;;;12.43;;
20101;SDS011;10210;52.284;9.892;2023-05-07T09:59:38;18.97;;;12.37;;
20101;SDS011;10210;52.284;9.892;2023-05-07T10:02:09;19.00;;;12.13;;
20101;SDS011;10210;52.284;9.892;2023-05-07T10:04:36;19.63;;;12.33;;
20101;SDS011;10210;52.284;9.892;2023-05-07T10:07:02;18.37;;;12.30;;
20101;SDS011;10210;52.284;9.892;2023-05-07T10:09:29;18.90;;;12.33;;
20101;SDS011;10210;52.284;9.892;2023-05-07T10:11:56;18.63;;;12.60;;
20101;SDS011;10210;52.284;9.892;2023-05-07T10:14:22;18.90;;;12.43;;
20101;SDS011;10210;52.284;9.892;2023-05-07T10:16:49;19.97;;;13.17;;
20101;SDS011;10210;52.284;9.892;2023-05-07T10:19:15;18.07;;;11.80;;
20101;SDS011;10210;52.284;9.892;2023-05-07T10:21:54;18.77;;;11.77;;
20101;SDS011;10210;52.284;9.892;2023-05-07T10:26:54;19.40;;;11.77;;
20101;SDS011;10210;52.284;9.892;2023-05-07T10:32:37;17.43;;;11.07;;
20101;SDS011;10210;52.284;9.892;2023-05-07T10:35:11;18.53;;;11.63;;
20101;SDS011;10210;52.284;9.892;2023-05-07T10:37:44;18.30;;;12.17;;
20101;SDS011;10210;52.284;9.892;2023-05-07T10:40:10;18.30;;;11.50;;
20101;SDS011;10210;52.284;9.892;2023-05-07T10:42:37;18.13;;;11.27;;
20101;SDS011;10210;52.284;9.892;2023-05-07T10:45:13;17.97;;;11.63;;
20101;SDS011;10210;52.284;9.892;2023-05-07T10:50:42;17.37;;;10.40;;
20101;SDS011;10210;52.284;9.892;2023-05-07T10:53:20;16.77;;;10.30;;
20101;SDS011;10210;52.284;9.892;2023-05-07T10:55:50;16.57;;;10.20;;
20101;SDS011;10210;52.284;9.892;2023-05-07T10:58:42;17.87;;;10.83;;
20101;SDS011;10210;52.284;9.892;2023-05-07T11:04:22;17.33;;;11.60;;
20101;SDS011;10210;52.284;9.892;2023-05-07T11:15:05;17.30;;;9.93;;
20101;SDS011;10210;52.284;9.892;2023-05-07T11:17:59;15.60;;;9.63;;
20101;SDS011;10210;52.284;9.892;2023-05-07T11:26:03;17.53;;;9.90;;
20101;SDS011;10210;52.284;9.892;2023-05-07T11:28:31;17.13;;;9.70;;
20101;SDS011;10210;52.284;9.892;2023-05-07T11:31:04;16.93;;;10.00;;
20101;SDS011;10210;52.284;9.892;2023-05-07T11:33:30;15.70;;;9.57;;
20101;SDS011;10210;52.284;9.892;2023-05-07T11:35:57;15.60;;;9.60;;
20101;SDS011;10210;52.284;9.892;2023-05-07T11:38:23;16.67;;;10.40;;
20101;SDS011;10210;52.284;9.892;2023-05-07T11:40:51;16.20;;;10.20;;
20101;SDS011;10210;52.284;9.892;2023-05-07T11:43:18;16.30;;;9.30;;
20101;SDS011;10210;52.284;9.892;2023-05-07T11:45:47;16.23;;;10.13;;
20101;SDS011;10210;52.284;9.892;2023-05-07T11:48:14;15.43;;;9.70;;
20101;SDS011;10210;52.284;9.892;2023-05-07T11:50:53;14.80;;;8.90;;
20101;SDS011;10210;52.284;9.892;2023-05-07T11:53:26;15.37;;;8.70;;
20101;SDS011;10210;52.284;9.892;2023-05-07T11:55:59;14.60;;;8.33;;
20101;SDS011;10210;52.284;9.892;2023-05-07T11:58:30;13.70;;;8.20;;
20101;SDS011;10210;52.284;9.892;2023-05-07T12:00:56;14.00;;;8.30;;
20101;SDS011;10210;52.284;9.892;2023-05-07T12:03:22;14.73;;;8.33;;
20101;SDS011;10210;52.284;9.892;2023-05-07T12:05:47;14.13;;;8.00;;
20101;SDS011;10210;52.284;9.892;2023-05-07T12:08:14;14.27;;;7.53;;
20101;SDS011;10210;52.284;9.892;2023-05-07T12:10:44;14.03;;;7.23;;
20101;SDS011;10210;52.284;9.892;2023-05-07T12:13:16;13.43;;;7.53;;
20101;SDS011;10210;52.284;9.892;2023-05-07T12:15:44;13.73;;;7.50;;
20101;SDS011;10210;52.284;9.892;2023-05-07T12:18:11;13.63;;;7.67;;
20101;SDS011;10210;52.284;9.892;2023-05-07T12:20:38;13.50;;;7.47;;
20101;SDS011;10210;52.284;9.892;2023-05-07T12:23:04;13.13;;;7.43;;
20101;SDS011;10210;52.284;9.892;2023-05-07T12:25:31;13.87;;;8.17;;
20101;SDS011;10210;52.284;9.892;2023-05-07T12:28:00;14.67;;;8.73;;
20101;SDS011;10210;52.284;9.892;2023-05-07T12:30:26;13.50;;;7.63;;
20101;SDS011;10210;52.284;9.892;2023-05-07T12:32:53;13.43;;;7.90;;
20101;SDS011;10210;52.284;9.892;2023-05-07T12:35:29;14.20;;;8.23;;
20101;SDS011;10210;52.284;9.892;2023-05-07T12:37:57;13.63;;;7.87;;
20101;SDS011;10210;52.284;9.892;2023-05-07T12:40:25;13.10;;;7.37;;
20101;SDS011;10210;52.284;9.892;2023-05-07T12:43:02;15.43;;;8.30;;
20101;SDS011;10210;52.284;9.892;2023-05-07T12:45:28;14.87;;;8.73;;
20101;SDS011;10210;52.284;9.892;2023-05-07T12:47:53;16.73;;;9.30;;
20101;SDS011;10210;52.284;9.892;2023-05-07T12:50:19;17.97;;;9.20;;
20101;SDS011;10210;52.284;9.892;2023-05-07T12:52:47;18.90;;;11.00;;
20101;SDS011;10210;52.284;9.892;2023-05-07T12:55:16;16.23;;;10.10;;
20101;SDS011;10210;52.284;9.892;2023-05-07T12:57:43;16.93;;;10.90;;
20101;SDS011;10210;52.284;9.892;2023-05-07T13:00:13;17.13;;;10.70;;
20101;SDS011;10210;52.284;9.892;2023-05-07T13:02:40;18.43;;;11.20;;
20101;SDS011;10210;52.284;9.892;2023-05-07T13:05:09;18.17;;;11.67;;
20101;SDS011;10210;52.284;9.892;2023-05-07T13:07:35;17.20;;;11.10;;
20101;SDS011;10210;52.284;9.892;2023-05-07T13:10:01;18.07;;;11.43;;
20101;SDS011;10210;52.284;9.892;2023-05-07T13:12:28;16.03;;;9.70;;
20101;SDS011;10210;52.284;9.892;2023-05-07T13:14:53;17.57;;;12.10;;
20101;SDS011;10210;52.284;9.892;2023-05-07T13:17:19;17.27;;;11.00;;
20101;SDS011;10210;52.284;9.892;2023-05-07T13:19:44;15.83;;;10.70;;
20101;SDS011;10210;52.284;9.892;2023-05-07T13:22:10;15.20;;;10.33;;
20101;SDS011;10210;52.284;9.892;2023-05-07T13:24:36;15.43;;;10.20;;
20101;SDS011;10210;52.284;9.892;2023-05-07T13:27:01;16.50;;;11.40;;
20101;SDS011;10210;52.284;9.892;2023-05-07T13:29:29;16.30;;;10.77;;
20101;SDS011;10210;52.284;9.892;2023-05-07T13:31:58;15.80;;;10.67;;
20101;SDS011;10210;52.284;9.892;2023-05-07T13:34:24;15.60;;;10.33;;
20101;SDS011;10210;52.284;9.892;2023-05-07T13:37:00;16.17;;;10.13;;
20101;SDS011;10210;52.284;9.892;2023-05-07T13:39:26;16.07;;;10.30;;
20101;SDS011;10210;52.284;9.892;2023-05-07T13:41:52;15.50;;;10.10;;
20101;SDS011;10210;52.284;9.892;2023-05-07T13:44:18;16.00;;;10.20;;
20101;SDS011;10210;52.284;9.892;2023-05-07T13:46:43;15.80;;;10.33;;
20101;SDS011;10210;52.284;9.892;2023-05-07T13:49:10;16.70;;;10.47;;
20101;SDS011;10210;52.284;9.892;2023-05-07T13:51:37;16.17;;;10.40;;
20101;SDS011;10210;52.284;9.892;2023-05-07T13:54:03;16.03;;;9.90;;
20101;SDS011;10210;52.284;9.892;2023-05-07T13:56:29;15.73;;;8.73;;
20101;SDS011;10210;52.284;9.892;2023-05-07T13:58:57;16.87;;;9.20;;
20101;SDS011;10210;52.284;9.892;2023-05-07T14:01:23;15.30;;;9.07;;
20101;SDS011;10210;52.284;9.892;2023-05-07T14:03:49;15.00;;;10.00;;
20101;SDS011;10210;52.284;9.892;2023-05-07T14:06:14;14.23;;;8.43;;
20101;SDS011;10210;52.284;9.892;2023-05-07T14:08:40;13.70;;;7.90;;
20101;SDS011;10210;52.284;9.892;2023-05-07T14:11:06;14.33;;;8.07;;
20101;SDS011;10210;52.284;9.892;2023-05-07T14:13:31;14.77;;;8.40;;
20101;SDS011;10210;52.284;9.892;2023-05-07T14:15:59;13.77;;;8.17;;
20101;SDS011;10210;52.284;9.892;2023-05-07T14:18:25;15.10;;;8.43;;
20101;SDS011;10210;52.284;9.892;2023-05-07T14:20:53;14.77;;;8.73;;
20101;SDS011;10210;52.284;9.892;2023-05-07T14:23:19;14.50;;;8.80;;
20101;SDS011;10210;52.284;9.892;2023-05-07T14:25:47;14.80;;;8.37;;
20101;SDS011;10210;52.284;9.892;2023-05-07T14:28:12;14.50;;;8.47;;
20101;SDS011;10210;52.284;9.892;2023-05-07T14:30:38;15.77;;;9.70;;
20101;SDS011;10210;52.284;9.892;2023-05-07T14:33:10;16.47;;;10.03;;
20101;SDS011;10210;52.284;9.892;2023-05-07T14:35:36;16.30;;;9.30;;
20101;SDS011;10210;52.284;9.892;2023-05-07T14:38:01;15.53;;;9.10;;
20101;SDS011;10210;52.284;9.892;2023-05-07T14:40:27;14.93;;;9.07;;
20101;SDS011;10210;52.284;9.892;2023-05-07T14:42:53;16.43;;;8.90;;
20101;SDS011;10210;52.284;9.892;2023-05-07T14:45:18;15.10;;;8.97;;
20101;SDS011;10210;52.284;9.892;2023-05-07T14:47:48;16.57;;;9.50;;
20101;SDS011;10210;52.284;9.892;2023-05-07T14:50:14;15.60;;;9.37;;